createdAt,value
2024-05-09T00:00:35.309Z,73.32
2024-05-09T00:03:30.191Z,72.23
2024-05-09T00:06:00.388Z,72.20
2024-05-09T00:08:31.786Z,71.21
2024-05-09T00:11:03.269Z,72.22
2024-05-09T00:13:34.435Z,73.35
2024-05-09T00:16:06.715Z,73.38
2024-05-09T00:18:37.983Z,73.70
2024-05-09T00:21:10.559Z,73.73
2024-05-09T00:23:42.184Z,73.34
2024-05-09T00:26:17.936Z,73.50
2024-05-09T00:28:49.297Z,73.09
2024-05-09T00:31:20.626Z,73.10
2024-05-09T00:33:51.675Z,72.42
2024-05-09T00:36:22.926Z,73.36
2024-05-09T00:38:53.871Z,73.68
2024-05-09T00:41:25.103Z,74.30
2024-05-09T00:43:56.117Z,74.80
2024-05-09T00:46:27.933Z,74.75
2024-05-09T00:48:59.703Z,74.38
2024-05-09T00:51:30.817Z,74.79
2024-05-09T00:54:02.468Z,74.52
2024-05-09T00:56:35.866Z,74.08
2024-05-09T00:59:07.312Z,73.00
2024-05-09T01:01:38.721Z,73.07
2024-05-09T01:04:10.824Z,74.23
2024-05-09T01:06:42.337Z,74.66
2024-05-09T01:09:13.403Z,75.36
2024-05-09T01:11:44.698Z,75.88
2024-05-09T01:14:16.053Z,76.24
2024-05-09T01:16:47.442Z,76.38
2024-05-09T01:19:26.991Z,75.97
2024-05-09T01:21:58.219Z,77.00
2024-05-09T01:24:29.353Z,76.96
2024-05-09T01:27:00.644Z,76.76
2024-05-09T01:29:31.807Z,77.03
2024-05-09T01:32:04.459Z,77.11
2024-05-09T01:34:35.622Z,76.94
2024-05-09T01:37:06.699Z,76.71
2024-05-09T01:39:37.764Z,76.62
2024-05-09T01:42:08.974Z,76.17
2024-05-09T01:44:39.895Z,76.26
2024-05-09T01:47:11.376Z,76.54
2024-05-09T01:49:41.285Z,76.48
2024-05-09T01:52:12.278Z,75.92
2024-05-09T01:54:43.633Z,76.02
2024-05-09T01:57:15.020Z,75.73
2024-05-09T01:59:46.109Z,75.70
2024-05-09T02:02:17.566Z,75.54
2024-05-09T02:04:48.191Z,75.88
2024-05-09T02:07:19.427Z,75.27
2024-05-09T02:09:53.638Z,75.65
2024-05-09T02:12:24.994Z,76.03
2024-05-09T02:14:54.917Z,76.43
2024-05-09T02:17:26.145Z,75.71
2024-05-09T02:19:57.379Z,76.83
2024-05-09T02:22:28.603Z,75.79
2024-05-09T02:24:59.684Z,76.09
2024-05-09T02:27:30.988Z,76.39
2024-05-09T02:30:01.993Z,76.33
2024-05-09T02:32:33.343Z,76.99
2024-05-09T02:35:04.501Z,77.08
2024-05-09T02:37:35.792Z,77.36
2024-05-09T02:40:11.725Z,77.32
2024-05-09T02:42:45.854Z,76.91
2024-05-09T02:45:17.098Z,76.71
2024-05-09T02:47:48.570Z,77.37
2024-05-09T02:50:26.575Z,77.04
2024-05-09T02:53:05.705Z,75.82
2024-05-09T02:55:37.173Z,75.82
2024-05-09T02:58:08.686Z,75.99
2024-05-09T03:00:41.318Z,77.35
2024-05-09T03:03:15.623Z,76.65
2024-05-09T03:05:49.262Z,76.19
2024-05-09T03:08:20.549Z,76.54
2024-05-09T03:10:51.527Z,77.30
2024-05-09T03:13:22.737Z,77.30
2024-05-09T03:15:53.794Z,76.35
2024-05-09T03:18:24.998Z,77.14
2024-05-09T03:20:56.221Z,76.92
2024-05-09T03:23:27.190Z,77.54
2024-05-09T03:25:58.566Z,77.99
2024-05-09T03:28:29.836Z,78.45
2024-05-09T03:31:01.023Z,77.82
2024-05-09T03:33:32.332Z,77.69
2024-05-09T03:36:09.034Z,77.59
2024-05-09T03:38:41.934Z,77.29
2024-05-09T03:41:14.580Z,77.36
2024-05-09T03:43:47.158Z,77.45
2024-05-09T03:46:18.198Z,77.42
2024-05-09T03:48:49.564Z,77.49
2024-05-09T03:51:20.715Z,77.40
2024-05-09T03:53:51.884Z,78.22
2024-05-09T03:56:23.239Z,78.38
2024-05-09T03:58:55.912Z,77.98
2024-05-09T04:01:29.640Z,78.01
2024-05-09T04:04:00.781Z,77.89
2024-05-09T04:06:32.000Z,77.61
2024-05-09T04:09:03.553Z,77.44
2024-05-09T04:11:33.255Z,77.09
2024-05-09T04:14:04.433Z,76.67
2024-05-09T04:16:35.613Z,77.24
2024-05-09T04:19:07.751Z,77.55
2024-05-09T04:21:38.989Z,77.70
2024-05-09T04:24:10.254Z,77.09
2024-05-09T04:26:41.229Z,77.58
2024-05-09T04:29:12.323Z,77.72
2024-05-09T04:31:43.652Z,77.93
2024-05-09T04:34:14.900Z,77.80
2024-05-09T04:36:46.184Z,78.04
2024-05-09T04:39:17.368Z,77.78
2024-05-09T04:41:48.501Z,77.73
2024-05-09T04:44:19.581Z,77.54
2024-05-09T04:46:50.855Z,77.26
2024-05-09T04:49:21.951Z,77.09
2024-05-09T04:51:53.227Z,76.85
2024-05-09T04:54:33.694Z,76.19
2024-05-09T04:57:07.989Z,75.18
2024-05-09T04:59:37.845Z,74.92
2024-05-09T05:02:09.796Z,74.42
2024-05-09T05:04:40.830Z,72.86
2024-05-09T05:07:12.183Z,71.35
2024-05-09T05:09:43.248Z,69.57
2024-05-09T05:12:28.650Z,68.86
2024-05-09T05:14:59.769Z,67.90
2024-05-09T05:17:31.266Z,67.26
2024-05-09T05:20:01.219Z,66.01
2024-05-09T05:22:32.984Z,65.57
2024-05-09T05:25:04.666Z,63.80
2024-05-09T05:27:35.719Z,63.10
2024-05-09T05:30:14.646Z,62.63
2024-05-09T05:32:48.956Z,62.48
2024-05-09T05:35:20.131Z,62.60
2024-05-09T05:37:51.329Z,61.58
2024-05-09T05:40:32.042Z,60.15
2024-05-09T05:43:08.184Z,60.66
2024-05-09T05:45:39.563Z,61.01
2024-05-09T05:48:09.774Z,61.80
2024-05-09T05:50:41.501Z,61.27
2024-05-09T05:53:11.322Z,59.20
2024-05-09T05:55:43.232Z,58.74
2024-05-09T05:58:15.229Z,56.66
2024-05-09T06:00:46.422Z,56.66
2024-05-09T06:03:17.872Z,57.23
2024-05-09T06:05:49.242Z,55.90
2024-05-09T06:08:20.860Z,55.34
2024-05-09T06:10:51.997Z,54.40
2024-05-09T06:13:23.030Z,53.80
2024-05-09T06:15:54.382Z,52.57
2024-05-09T06:18:24.558Z,52.48
2024-05-09T06:20:55.849Z,51.41
2024-05-09T06:23:26.956Z,50.55
2024-05-09T06:25:58.139Z,50.03
2024-05-09T06:28:29.585Z,48.67
2024-05-09T06:30:59.332Z,49.95
2024-05-09T06:33:30.662Z,49.69
2024-05-09T06:36:01.885Z,46.24
2024-05-09T06:38:33.556Z,43.32
2024-05-09T06:41:05.815Z,44.49
2024-05-09T06:43:38.011Z,45.61
2024-05-09T06:46:09.119Z,44.69
2024-05-09T06:48:40.628Z,43.84
2024-05-09T06:51:11.792Z,42.13
2024-05-09T06:53:43.139Z,41.88
2024-05-09T06:56:13.160Z,43.62
2024-05-09T06:58:44.418Z,43.55
2024-05-09T07:01:15.655Z,43.51
2024-05-09T07:03:47.110Z,43.46
2024-05-09T07:06:18.459Z,42.43
2024-05-09T07:08:48.793Z,42.05
2024-05-09T07:11:21.559Z,42.65
2024-05-09T07:13:53.568Z,40.64
2024-05-09T07:16:24.808Z,41.71
2024-05-09T07:18:56.388Z,39.03
2024-05-09T07:21:27.566Z,40.84
2024-05-09T07:23:58.872Z,40.45
2024-05-09T07:26:30.256Z,39.95
2024-05-09T07:29:01.702Z,40.48
2024-05-09T07:31:32.996Z,39.53
2024-05-09T07:34:02.836Z,40.34
2024-05-09T07:36:33.895Z,40.42
2024-05-09T07:39:05.419Z,39.02
2024-05-09T07:41:36.944Z,39.62
2024-05-09T07:44:08.312Z,39.94
2024-05-09T07:47:47.646Z,40.37
2024-05-09T07:54:41.336Z,40.21
2024-05-09T07:57:11.280Z,39.96
2024-05-09T07:59:42.496Z,39.74
2024-05-09T08:02:13.718Z,37.85
2024-05-09T08:04:44.989Z,38.19
2024-05-09T08:07:15.187Z,38.29
2024-05-09T08:09:47.432Z,38.14
2024-05-09T08:12:18.534Z,37.92
2024-05-09T08:14:48.294Z,37.90
2024-05-09T08:17:19.408Z,37.82
2024-05-09T08:19:49.062Z,37.84
2024-05-09T08:22:20.291Z,39.40
2024-05-09T08:24:50.140Z,38.83
2024-05-09T08:27:21.374Z,38.75
2024-05-09T08:29:51.102Z,38.76
2024-05-09T08:32:23.120Z,38.57
2024-05-09T08:34:54.057Z,37.59
2024-05-09T08:37:29.423Z,38.93
2024-05-09T08:40:04.143Z,37.83
2024-05-09T08:42:39.021Z,37.09
2024-05-09T08:45:13.242Z,38.06
2024-05-09T08:47:45.967Z,37.47
2024-05-09T08:50:28.917Z,37.19
2024-05-09T08:53:07.733Z,36.66
2024-05-09T08:55:42.041Z,36.71
2024-05-09T08:58:17.803Z,36.79
2024-05-09T09:00:49.780Z,36.65
2024-05-09T09:03:27.582Z,36.71
2024-05-09T09:06:02.895Z,37.16
2024-05-09T09:08:34.212Z,35.98
2024-05-09T09:11:04.394Z,37.34
2024-05-09T09:13:35.565Z,37.81
2024-05-09T09:16:06.418Z,37.25
2024-05-09T09:18:38.004Z,37.61
2024-05-09T09:21:13.347Z,36.67
2024-05-09T09:23:45.452Z,36.57
2024-05-09T09:26:18.902Z,36.63
2024-05-09T09:28:50.126Z,37.12
2024-05-09T09:31:21.822Z,36.20
2024-05-09T09:33:53.300Z,36.03
2024-05-09T09:36:24.692Z,35.77
2024-05-09T09:38:55.520Z,36.05
2024-05-09T09:41:30.425Z,36.03
2024-05-09T09:44:03.708Z,36.27
2024-05-09T09:46:35.448Z,35.73
2024-05-09T09:49:07.295Z,35.86
2024-05-09T09:51:43.333Z,35.83
2024-05-09T09:54:15.736Z,35.76
2024-05-09T09:56:48.523Z,35.69
2024-05-09T09:59:22.039Z,36.23
2024-05-09T10:01:53.261Z,35.71
2024-05-09T10:04:24.811Z,35.18
2024-05-09T10:07:02.130Z,34.78
2024-05-09T10:09:34.344Z,35.61
2024-05-09T10:12:13.352Z,35.76
2024-05-09T10:14:50.767Z,35.49
2024-05-09T10:17:22.129Z,34.89
2024-05-09T10:20:11.713Z,35.16
2024-05-09T10:22:50.543Z,35.77
2024-05-09T10:25:23.380Z,36.06
2024-05-09T10:27:57.860Z,35.83
2024-05-09T10:30:34.263Z,34.97
2024-05-09T10:49:45.630Z,34.36
2024-05-09T10:52:20.499Z,34.49
2024-05-09T10:54:54.000Z,34.70
2024-05-09T10:57:27.010Z,34.91
2024-05-09T11:00:00.752Z,35.20
2024-05-09T11:02:33.024Z,35.14
2024-05-09T11:05:06.185Z,35.15
2024-05-09T11:07:37.732Z,34.92
2024-05-09T11:10:14.488Z,34.88
2024-05-09T11:12:47.021Z,34.76
2024-05-09T11:15:18.762Z,34.61
2024-05-09T11:17:50.411Z,34.28
2024-05-09T11:20:29.100Z,33.50
2024-05-09T11:23:01.423Z,33.57
2024-05-09T11:25:33.809Z,32.93
2024-05-09T11:28:05.833Z,34.01
2024-05-09T11:30:37.584Z,34.27
2024-05-09T11:33:12.093Z,31.90
2024-05-09T11:35:43.790Z,32.84
2024-05-09T11:38:15.359Z,32.62
2024-05-09T11:40:46.808Z,32.78
2024-05-09T11:43:18.454Z,33.04
2024-05-09T11:45:50.251Z,34.29
2024-05-09T11:48:22.135Z,35.39
2024-05-09T11:50:54.930Z,34.80
2024-05-09T11:53:26.759Z,34.27
2024-05-09T11:55:58.112Z,34.47
2024-05-09T11:58:34.082Z,32.40
2024-05-09T12:01:05.847Z,32.98
2024-05-09T12:03:38.513Z,32.99
2024-05-09T12:06:10.039Z,32.73
2024-05-09T12:08:41.897Z,31.88
2024-05-09T12:11:14.128Z,31.89
2024-05-09T12:13:45.651Z,32.70
2024-05-09T12:16:17.245Z,31.84
2024-05-09T12:18:48.683Z,31.93
2024-05-09T12:21:20.498Z,31.34
2024-05-09T12:23:52.116Z,32.09
2024-05-09T12:26:23.591Z,32.28
2024-05-09T12:28:54.965Z,33.22
2024-05-09T12:31:26.812Z,32.80
2024-05-09T12:34:00.116Z,32.38
2024-05-09T12:36:31.754Z,33.80
2024-05-09T12:39:05.714Z,34.70
2024-05-09T12:41:37.397Z,34.15
2024-05-09T12:44:08.766Z,34.00
2024-05-09T12:46:40.156Z,32.39
2024-05-09T12:49:13.246Z,34.18
2024-05-09T12:51:45.688Z,34.07
2024-05-09T12:54:16.793Z,33.66
2024-05-09T12:56:48.196Z,33.05
2024-05-09T12:59:19.829Z,33.51
2024-05-09T13:01:51.452Z,33.20
2024-05-09T13:04:23.674Z,33.06
2024-05-09T13:06:55.219Z,31.39
2024-05-09T13:09:26.708Z,31.65
2024-05-09T13:11:58.148Z,32.09
2024-05-09T13:14:29.627Z,32.19
2024-05-09T13:17:01.025Z,31.61
2024-05-09T13:19:32.481Z,32.90
2024-05-09T13:22:04.297Z,33.55
2024-05-09T13:24:35.672Z,33.59
2024-05-09T13:27:07.469Z,34.75
2024-05-09T13:29:41.095Z,33.84
2024-05-09T13:32:14.399Z,33.17
2024-05-09T13:34:45.968Z,33.16
2024-05-09T13:37:17.663Z,33.17
2024-05-09T13:39:49.305Z,33.33
2024-05-09T13:42:20.740Z,33.93
2024-05-09T13:44:52.295Z,33.87
2024-05-09T13:47:24.273Z,33.59
2024-05-09T13:49:56.208Z,33.95
2024-05-09T13:52:27.757Z,33.84
2024-05-09T13:54:59.593Z,33.20
2024-05-09T13:57:31.513Z,34.07
2024-05-09T14:00:06.811Z,33.62
2024-05-09T14:02:43.996Z,33.29
2024-05-09T14:05:16.037Z,33.09
2024-05-09T14:07:47.938Z,33.46
2024-05-09T14:10:23.489Z,34.23
2024-05-09T14:13:01.035Z,35.81
2024-05-09T14:15:32.740Z,34.86
2024-05-09T14:18:04.352Z,34.65
2024-05-09T14:20:35.594Z,34.44
2024-05-09T14:23:08.163Z,34.98
2024-05-09T14:25:42.766Z,34.44
2024-05-09T14:28:15.384Z,34.73
2024-05-09T14:30:47.183Z,35.13
2024-05-09T14:33:23.504Z,34.66
2024-05-09T14:35:55.483Z,35.33
2024-05-09T14:38:27.413Z,35.63
2024-05-09T14:40:58.861Z,35.21
2024-05-09T14:43:30.318Z,34.54
2024-05-09T14:46:01.707Z,35.64
2024-05-09T14:48:33.479Z,38.01
2024-05-09T14:51:05.286Z,38.34
2024-05-09T14:53:36.837Z,35.80
2024-05-09T14:56:09.289Z,35.59
2024-05-09T14:58:40.865Z,36.38
2024-05-09T15:01:12.288Z,37.67
2024-05-09T15:03:44.396Z,37.13
2024-05-09T15:06:17.805Z,37.24
2024-05-09T15:08:57.147Z,36.64
2024-05-09T15:11:28.404Z,36.69
2024-05-09T15:14:00.104Z,36.97
2024-05-09T15:16:31.941Z,36.31
2024-05-09T15:19:03.666Z,36.04
2024-05-09T15:21:35.683Z,36.86
2024-05-09T15:24:08.083Z,35.90
2024-05-09T15:26:40.041Z,35.64
2024-05-09T15:29:11.376Z,36.19
2024-05-09T15:31:42.988Z,36.32
2024-05-09T15:34:14.293Z,35.21
2024-05-09T15:36:47.954Z,35.69
2024-05-09T15:39:19.855Z,36.77
2024-05-09T15:41:52.925Z,36.93
2024-05-09T15:44:26.236Z,36.86
2024-05-09T15:46:57.553Z,36.61
2024-05-09T15:49:29.218Z,37.00
2024-05-09T15:52:00.972Z,37.19
2024-05-09T15:54:32.281Z,37.16
2024-05-09T15:57:02.401Z,36.73
2024-05-09T15:59:33.491Z,36.72
2024-05-09T16:02:03.721Z,36.38
2024-05-09T16:04:35.349Z,36.72
2024-05-09T16:07:06.922Z,36.72
2024-05-09T16:09:38.748Z,36.77
2024-05-09T16:12:10.447Z,36.97
2024-05-09T16:14:41.837Z,37.43
2024-05-09T16:17:14.100Z,37.27
2024-05-09T16:19:45.580Z,37.47
2024-05-09T16:22:17.358Z,37.63
2024-05-09T16:24:49.020Z,37.40
2024-05-09T16:27:19.146Z,37.72
2024-05-09T16:29:50.825Z,37.95
2024-05-09T16:32:22.260Z,38.25
2024-05-09T16:34:53.850Z,38.50
2024-05-09T16:37:27.522Z,38.21
2024-05-09T16:40:00.292Z,38.10
2024-05-09T16:42:32.919Z,38.17
2024-05-09T16:45:04.309Z,38.14
2024-05-09T16:47:36.093Z,38.23
2024-05-09T16:50:10.761Z,38.27
2024-05-09T16:52:44.557Z,38.37
2024-05-09T16:55:16.528Z,38.35
2024-05-09T16:57:48.125Z,38.62
2024-05-09T17:00:30.905Z,38.78
2024-05-09T17:03:11.935Z,38.54
2024-05-09T17:05:45.232Z,38.41
2024-05-09T17:08:19.528Z,38.76
2024-05-09T17:10:51.292Z,39.16
2024-05-09T17:13:23.475Z,39.50
2024-05-09T17:15:55.759Z,39.64
2024-05-09T17:18:28.088Z,39.99
2024-05-09T17:20:59.776Z,40.15
2024-05-09T17:23:34.348Z,40.17
2024-05-09T17:26:06.809Z,40.50
2024-05-09T17:28:38.645Z,41.61
2024-05-09T17:31:10.311Z,42.44
2024-05-09T17:33:42.486Z,41.61
2024-05-09T17:36:13.975Z,41.73
2024-05-09T17:38:43.947Z,41.52
2024-05-09T17:41:15.290Z,41.31
2024-05-09T17:43:46.851Z,41.54
2024-05-09T17:46:18.244Z,41.80
2024-05-09T17:48:49.682Z,42.63
2024-05-09T17:51:20.870Z,42.98
2024-05-09T17:53:52.335Z,43.08
2024-05-09T17:56:23.681Z,43.18
2024-05-09T17:58:53.763Z,43.35
2024-05-09T18:01:25.552Z,43.79
2024-05-09T18:03:56.974Z,47.12
2024-05-09T18:06:28.902Z,48.13
2024-05-09T18:09:00.212Z,49.77
2024-05-09T18:11:30.581Z,50.40
2024-05-09T18:14:01.917Z,49.09
2024-05-09T18:16:33.505Z,51.16
2024-05-09T18:19:05.424Z,51.61
2024-05-09T18:21:37.028Z,51.76
2024-05-09T18:24:09.958Z,52.63
2024-05-09T18:26:41.844Z,52.40
2024-05-09T18:29:13.207Z,51.39
2024-05-09T18:31:44.810Z,51.24
2024-05-09T18:34:16.278Z,52.52
2024-05-09T18:36:47.831Z,52.12
2024-05-09T18:39:19.301Z,52.28
2024-05-09T18:41:49.748Z,52.27
2024-05-09T18:44:21.185Z,51.36
2024-05-09T18:46:52.836Z,52.57
2024-05-09T18:49:24.335Z,52.89
2024-05-09T18:51:55.907Z,53.18
2024-05-09T18:54:25.865Z,53.37
2024-05-09T18:56:56.991Z,52.57
2024-05-09T18:59:28.357Z,53.24
2024-05-09T19:02:00.005Z,53.43
2024-05-09T19:04:32.279Z,54.55
2024-05-09T19:07:04.494Z,55.47
2024-05-09T19:09:36.202Z,54.99
2024-05-09T19:12:09.352Z,54.74
2024-05-09T19:14:40.668Z,55.34
2024-05-09T19:17:10.618Z,55.00
2024-05-09T19:19:41.865Z,54.11
2024-05-09T19:22:13.058Z,54.82
2024-05-09T19:24:44.518Z,56.36
2024-05-09T19:27:14.469Z,56.38
2024-05-09T19:29:46.015Z,54.84
2024-05-09T19:32:16.138Z,56.18
2024-05-09T19:34:47.767Z,54.97
2024-05-09T19:37:17.743Z,56.80
2024-05-09T19:39:48.960Z,55.73
2024-05-09T19:42:20.284Z,57.89
2024-05-09T19:44:51.522Z,58.92
2024-05-09T19:47:22.833Z,58.12
2024-05-09T19:49:54.521Z,59.02
2024-05-09T19:52:26.882Z,59.22
2024-05-09T19:54:58.430Z,59.84
2024-05-09T19:57:30.319Z,60.46
2024-05-09T20:00:01.724Z,60.49
2024-05-09T20:02:31.845Z,60.58
2024-05-09T20:05:04.130Z,59.62
2024-05-09T20:07:37.402Z,60.02
2024-05-09T20:10:16.606Z,60.10
2024-05-09T20:12:54.733Z,60.67
2024-05-09T20:15:26.304Z,60.99
2024-05-09T20:17:57.669Z,60.79
2024-05-09T20:20:35.563Z,60.96
2024-05-09T20:23:10.990Z,60.20
2024-05-09T20:25:43.352Z,61.06
2024-05-09T20:28:15.461Z,61.50
2024-05-09T20:30:46.853Z,61.89
2024-05-09T20:33:18.481Z,61.79
2024-05-09T20:35:48.464Z,61.79
2024-05-09T20:38:19.777Z,61.04
2024-05-09T20:40:51.205Z,62.37
2024-05-09T20:43:21.421Z,62.60
2024-05-09T20:45:53.300Z,61.82
2024-05-09T20:48:24.824Z,62.51
2024-05-09T20:50:54.976Z,62.60
2024-05-09T20:53:26.600Z,61.82
2024-05-09T20:55:56.428Z,63.13
2024-05-09T20:58:28.853Z,61.89
2024-05-09T21:01:01.206Z,63.14
2024-05-09T21:03:35.273Z,63.74
2024-05-09T21:06:07.560Z,64.37
2024-05-09T21:08:39.325Z,64.30
2024-05-09T21:11:10.947Z,64.46
2024-05-09T21:13:42.695Z,64.87
2024-05-09T21:16:14.513Z,64.54
2024-05-09T21:18:46.319Z,64.78
2024-05-09T21:21:17.780Z,64.95
2024-05-09T21:23:49.225Z,65.06
2024-05-09T21:26:23.521Z,64.52
2024-05-09T21:28:55.418Z,64.41
2024-05-09T21:31:26.872Z,64.97
2024-05-09T21:33:57.291Z,65.03
2024-05-09T21:36:28.758Z,64.46
2024-05-09T21:39:00.107Z,66.18
2024-05-09T21:41:31.654Z,66.44
2024-05-09T21:44:02.957Z,66.62
2024-05-09T21:46:34.409Z,66.51
2024-05-09T21:49:04.523Z,66.44
2024-05-09T21:51:36.123Z,65.08
2024-05-09T21:54:07.410Z,66.57
2024-05-09T21:56:38.580Z,67.02
2024-05-09T21:59:10.254Z,67.49
2024-05-09T22:01:41.520Z,67.54
2024-05-09T22:04:12.964Z,67.91
2024-05-09T22:06:44.833Z,68.29
2024-05-09T22:09:16.375Z,68.31
2024-05-09T22:11:48.062Z,68.38
2024-05-09T22:14:20.963Z,67.01
2024-05-09T22:16:52.314Z,68.24
2024-05-09T22:19:23.476Z,67.78
2024-05-09T22:21:55.403Z,67.79
2024-05-09T22:24:27.172Z,68.30
2024-05-09T22:26:57.092Z,68.45
2024-05-09T22:29:28.935Z,67.66
2024-05-09T22:32:00.225Z,69.47
2024-05-09T22:34:32.215Z,69.19
2024-05-09T22:37:03.932Z,68.82
2024-05-09T22:39:35.482Z,69.61
2024-05-09T22:42:06.179Z,69.30
2024-05-09T22:44:37.905Z,67.58
2024-05-09T22:47:09.519Z,69.72
2024-05-09T22:49:40.999Z,69.94
2024-05-09T22:52:12.597Z,70.66
2024-05-09T22:54:45.000Z,70.75
2024-05-09T22:57:16.429Z,70.91
2024-05-09T22:59:48.089Z,70.96
2024-05-09T23:02:19.453Z,71.00
2024-05-09T23:04:49.650Z,71.11
2024-05-09T23:07:21.142Z,70.18
2024-05-09T23:09:52.760Z,70.23
2024-05-09T23:12:22.803Z,70.90
2024-05-09T23:14:54.278Z,69.99
2024-05-09T23:17:25.804Z,71.25
2024-05-09T23:19:55.842Z,71.16
2024-05-09T23:22:27.113Z,70.11
2024-05-09T23:24:58.556Z,71.46
2024-05-09T23:27:28.743Z,71.58
2024-05-09T23:30:00.279Z,70.60
2024-05-09T23:32:30.621Z,71.35
2024-05-09T23:35:02.416Z,70.28
2024-05-09T23:37:32.492Z,71.64
2024-05-09T23:40:06.996Z,70.70
2024-05-09T23:42:42.663Z,71.70
2024-05-09T23:45:14.011Z,71.63
2024-05-09T23:47:45.493Z,71.46
2024-05-09T23:50:20.551Z,72.33
2024-05-09T23:52:55.613Z,71.17
2024-05-09T23:55:27.004Z,72.55
2024-05-09T23:57:58.367Z,72.69
